createdAt,value
2023-04-27T00:00:10.299Z,10.7319
2023-04-27T00:01:12.879Z,10.7017
2023-04-27T00:02:15.537Z,10.7023
2023-04-27T00:03:18.280Z,10.7480
2023-04-27T00:04:20.998Z,10.7906
2023-04-27T00:05:23.422Z,10.8211
2023-04-27T00:06:25.942Z,10.9110
2023-04-27T00:07:28.528Z,10.9880
2023-04-27T00:08:31.169Z,11.0321
2023-04-27T00:09:33.769Z,11.0625
2023-04-27T00:10:36.407Z,11.0193
2023-04-27T00:11:38.985Z,10.9080
2023-04-27T00:12:41.616Z,10.8290
2023-04-27T00:13:44.189Z,10.7740
2023-04-27T00:14:46.828Z,10.7483
2023-04-27T00:15:49.410Z,10.7285
2023-04-27T00:16:52.150Z,10.7171
2023-04-27T00:17:54.794Z,10.7269
2023-04-27T00:18:57.262Z,10.7547
2023-04-27T00:19:59.859Z,10.7857
2023-04-27T00:21:02.488Z,10.7786
2023-04-27T00:22:05.087Z,10.8254
2023-04-27T00:23:07.715Z,10.7795
2023-04-27T00:24:10.293Z,10.7154
2023-04-27T00:25:12.931Z,10.7180
2023-04-27T00:26:15.507Z,10.7146
2023-04-27T00:27:18.154Z,10.7537
2023-04-27T00:28:20.731Z,10.8150
2023-04-27T00:29:23.367Z,10.8257
2023-04-27T00:30:25.943Z,10.7461
2023-04-27T00:31:28.603Z,10.7442
2023-04-27T00:32:31.194Z,10.6991
2023-04-27T00:33:33.809Z,10.6894
2023-04-27T00:34:36.379Z,10.6877
2023-04-27T00:35:39.014Z,10.6994
2023-04-27T00:36:41.629Z,10.7215
2023-04-27T00:37:44.238Z,10.7070
2023-04-27T00:38:46.819Z,10.6455
2023-04-27T00:39:49.480Z,10.6348
2023-04-27T00:40:52.038Z,10.6511
2023-04-27T00:41:54.668Z,10.6182
2023-04-27T00:42:57.268Z,10.6977
2023-04-27T00:43:59.905Z,10.7483
2023-04-27T00:45:02.476Z,10.6455
2023-04-27T00:46:05.137Z,10.6721
2023-04-27T00:47:07.690Z,10.7186
2023-04-27T00:48:10.326Z,10.6512
2023-04-27T00:49:13.088Z,10.6600
2023-04-27T00:50:15.547Z,10.5556
2023-04-27T00:51:18.131Z,10.5015
2023-04-27T00:52:20.771Z,10.4947
2023-04-27T00:53:23.362Z,10.4126
2023-04-27T00:56:24.325Z,10.4142
2023-04-27T00:57:26.912Z,10.3329
2023-04-27T00:58:29.535Z,10.4091
2023-04-27T00:59:32.126Z,10.4383
2023-04-27T01:00:34.767Z,10.4760
2023-04-27T01:01:37.426Z,10.4796
2023-04-27T01:02:40.176Z,10.5157
2023-04-27T01:03:42.748Z,10.5777
2023-04-27T01:04:45.217Z,10.6284
2023-04-27T01:05:47.787Z,10.6435
2023-04-27T01:06:50.434Z,10.6715
2023-04-27T01:07:53.042Z,10.6806
2023-04-27T01:08:55.638Z,10.6598
2023-04-27T01:09:58.224Z,10.6545
2023-04-27T01:11:00.855Z,10.7077
2023-04-27T01:13:03.995Z,10.8830
2023-04-27T01:14:06.592Z,10.6861
2023-04-27T01:15:09.225Z,10.7222
2023-04-27T01:16:11.797Z,10.7460
2023-04-27T01:17:14.428Z,10.7413
2023-04-27T01:18:17.042Z,10.7221
2023-04-27T01:19:19.651Z,10.6889
2023-04-27T01:20:22.249Z,10.7363
2023-04-27T01:21:24.878Z,10.8274
2023-04-27T01:22:27.480Z,10.8440
2023-04-27T01:23:30.106Z,10.8270
2023-04-27T01:24:32.698Z,10.7848
2023-04-27T01:25:35.325Z,10.7774
2023-04-27T01:26:37.907Z,10.6123
2023-04-27T01:27:40.545Z,10.4335
2023-04-27T01:28:43.500Z,10.3228
2023-04-27T01:29:45.779Z,10.2525
2023-04-27T01:30:48.389Z,10.1984
2023-04-27T01:31:50.993Z,10.1618
2023-04-27T01:32:53.647Z,10.1372
2023-04-27T01:33:56.231Z,10.1749
2023-04-27T01:34:58.817Z,10.2186
2023-04-27T01:36:01.449Z,10.2682
2023-04-27T01:37:04.044Z,10.2336
2023-04-27T01:38:06.675Z,10.1818
2023-04-27T01:39:09.248Z,10.1602
2023-04-27T01:40:11.947Z,10.1557
2023-04-27T01:41:14.480Z,10.1285
2023-04-27T01:42:17.119Z,10.1375
2023-04-27T01:43:19.699Z,10.1693
2023-04-27T01:44:22.343Z,10.1720
2023-04-27T01:45:24.932Z,10.1816
2023-04-27T01:46:27.618Z,10.1889
2023-04-27T01:47:30.238Z,10.2622
2023-04-27T01:48:32.786Z,10.3207
2023-04-27T01:49:35.365Z,10.2487
2023-04-27T01:50:38.004Z,10.2125
2023-04-27T01:51:40.590Z,10.1865
2023-04-27T01:52:43.228Z,10.1847
2023-04-27T01:53:45.813Z,10.1915
2023-04-27T01:54:48.454Z,10.1756
2023-04-27T01:55:51.038Z,10.1635
2023-04-27T01:56:53.680Z,10.1558
2023-04-27T01:57:56.251Z,10.1470
2023-04-27T01:58:58.893Z,10.1373
2023-04-27T02:00:01.504Z,10.1047
2023-04-27T02:01:04.116Z,10.0948
2023-04-27T02:02:06.734Z,10.1091
2023-04-27T02:03:09.472Z,10.1089
2023-04-27T02:04:12.080Z,10.0641
2023-04-27T02:05:14.601Z,10.0495
2023-04-27T02:06:17.178Z,10.0380
2023-04-27T02:07:19.786Z,10.0515
2023-04-27T02:08:22.358Z,10.0684
2023-04-27T02:09:25.006Z,10.1036
2023-04-27T02:10:27.584Z,10.1627
2023-04-27T02:11:30.237Z,10.1922
2023-04-27T02:12:32.807Z,10.1538
2023-04-27T02:13:35.431Z,10.2194
2023-04-27T02:14:38.027Z,10.2152
2023-04-27T02:15:40.728Z,10.1911
2023-04-27T02:16:43.314Z,10.1812
2023-04-27T02:17:45.931Z,10.2153
2023-04-27T02:18:48.479Z,10.1739
2023-04-27T02:19:51.118Z,10.1522
2023-04-27T02:20:53.699Z,10.1964
2023-04-27T02:21:56.342Z,10.1699
2023-04-27T02:22:59.214Z,10.1601
2023-04-27T02:25:31.006Z,10.2894
2023-04-27T02:26:33.577Z,10.0936
2023-04-27T02:27:36.212Z,10.0735
2023-04-27T02:28:38.810Z,10.0422
2023-04-27T02:29:41.443Z,10.0361
2023-04-27T02:30:44.038Z,10.0577
2023-04-27T02:31:46.719Z,10.0389
2023-04-27T02:32:49.280Z,10.0256
2023-04-27T02:33:51.900Z,10.0322
2023-04-27T02:34:54.487Z,10.0133
2023-04-27T02:35:57.120Z,9.9873
2023-04-27T02:36:59.714Z,9.9645
2023-04-27T02:38:02.351Z,9.9335
2023-04-27T02:39:04.963Z,9.9311
2023-04-27T02:40:07.579Z,9.9326
2023-04-27T02:41:10.157Z,9.9416
2023-04-27T02:42:12.793Z,10.0022
2023-04-27T02:43:15.388Z,9.9959
2023-04-27T02:44:18.021Z,9.9391
2023-04-27T02:45:20.614Z,9.9536
2023-04-27T02:46:23.249Z,10.0170
2023-04-27T02:47:25.857Z,10.0649
2023-04-27T02:48:28.472Z,10.0639
2023-04-27T02:49:31.058Z,10.0618
2023-04-27T02:51:43.850Z,10.1224
2023-04-27T02:52:46.488Z,9.9653
2023-04-27T02:53:49.095Z,9.9689
2023-04-27T02:54:51.709Z,9.9829
2023-04-27T02:55:54.294Z,9.9771
2023-04-27T02:56:56.929Z,9.9849
2023-04-27T02:57:59.518Z,9.9958
2023-04-27T02:59:02.158Z,10.0590
2023-04-27T03:00:04.741Z,10.0708
2023-04-27T03:01:07.406Z,10.0641
2023-04-27T03:02:09.971Z,10.0399
2023-04-27T03:03:12.701Z,10.0284
2023-04-27T03:05:39.810Z,10.2839
2023-04-27T03:06:42.448Z,10.1581
2023-04-27T03:07:45.029Z,10.1743
2023-04-27T03:08:47.664Z,10.1498
2023-04-27T03:09:50.291Z,10.0954
2023-04-27T03:10:52.952Z,10.0345
2023-04-27T03:11:55.481Z,10.0264
2023-04-27T03:12:58.114Z,9.9892
2023-04-27T03:14:00.704Z,9.9485
2023-04-27T03:15:03.342Z,9.9201
2023-04-27T03:16:05.966Z,9.8997
2023-04-27T03:17:08.559Z,9.8781
2023-04-27T03:18:11.169Z,9.8510
2023-04-27T03:19:13.912Z,9.8455
2023-04-27T03:20:16.403Z,9.8622
2023-04-27T03:21:19.002Z,9.8999
2023-04-27T03:22:21.897Z,9.9949
2023-04-27T03:23:24.221Z,10.0716
2023-04-27T03:24:26.847Z,10.1175
2023-04-27T03:25:29.476Z,10.0764
2023-04-27T03:27:56.668Z,10.1159
2023-04-27T03:28:59.408Z,10.0453
2023-04-27T17:18:54.859Z,17.7499
2023-04-27T17:19:57.410Z,17.7450
2023-04-27T17:21:00.022Z,17.9481
2023-04-27T17:22:02.591Z,18.1032
2023-04-27T17:23:05.204Z,18.1991
2023-04-27T17:24:07.764Z,18.1922
2023-04-27T17:25:10.386Z,18.1718
2023-04-27T17:26:12.940Z,18.1780
2023-04-27T17:27:15.551Z,18.1920
2023-04-27T17:28:18.113Z,18.2177
2023-04-27T17:29:20.733Z,18.2068
2023-04-27T17:30:23.446Z,18.2834
2023-04-27T17:31:25.958Z,18.3076
2023-04-27T17:32:28.487Z,18.2714
2023-04-27T17:33:31.098Z,18.3163
2023-04-27T17:34:33.653Z,18.3605
2023-04-27T17:35:36.264Z,18.4268
2023-04-27T17:36:38.846Z,18.4620
2023-04-27T17:37:41.443Z,18.4650
2023-04-27T17:38:44.014Z,18.5017
2023-04-27T17:39:46.611Z,18.5351
2023-04-27T17:40:49.175Z,18.5476
2023-04-27T17:41:51.801Z,18.5876
2023-04-27T17:42:54.516Z,18.6479
2023-04-27T17:43:56.982Z,18.6963
2023-04-27T17:44:59.551Z,18.7137
2023-04-27T17:46:02.176Z,18.7427
2023-04-27T17:47:04.770Z,18.7590
2023-04-27T17:48:07.382Z,18.7580
2023-04-27T17:49:09.894Z,18.7263
2023-04-27T17:50:12.488Z,18.7113
2023-04-27T17:51:15.078Z,18.7172
2023-04-27T17:52:17.680Z,18.7556
2023-04-27T17:53:20.251Z,18.7997
2023-04-27T17:54:22.853Z,18.8355
2023-04-27T17:55:25.428Z,18.7505
2023-04-27T17:56:28.037Z,18.7042
2023-04-27T17:57:30.599Z,18.6975
2023-04-27T17:58:33.493Z,18.6775
2023-04-27T17:59:35.755Z,18.6419
2023-04-27T18:00:38.376Z,18.5571
2023-04-27T18:01:40.932Z,18.5565
2023-04-27T18:02:43.665Z,18.5838
2023-04-27T18:03:46.221Z,18.6010
2023-04-27T18:04:48.710Z,18.6010
2023-04-27T18:05:51.269Z,18.5071
2023-04-27T18:08:13.544Z,18.6012
2023-04-27T18:09:16.328Z,18.3858
2023-04-27T18:10:18.687Z,18.2581
2023-04-27T18:11:21.237Z,18.2029
2023-04-27T18:12:23.917Z,18.1651
2023-04-27T18:13:26.424Z,18.0582
2023-04-27T18:14:29.044Z,18.0851
2023-04-27T18:15:31.610Z,18.1063
2023-04-27T18:16:34.256Z,18.0560
2023-04-27T18:17:36.807Z,17.9842
2023-04-27T18:18:39.413Z,17.9843
2023-04-27T18:19:41.976Z,17.9972
2023-04-27T18:20:44.590Z,18.0008
2023-04-27T18:21:47.148Z,18.0071
2023-04-27T18:22:49.745Z,17.9916
2023-04-27T18:23:52.320Z,17.9081
2023-04-27T18:24:54.923Z,17.8017
2023-04-27T18:25:58.034Z,17.8003
2023-04-27T18:27:00.111Z,17.7840
2023-04-27T18:28:05.236Z,17.6813
2023-04-27T18:29:05.317Z,17.6323
2023-04-27T18:30:07.854Z,17.4911
2023-04-27T18:31:10.468Z,17.3017
2023-04-27T18:32:13.065Z,17.1302
2023-04-27T18:33:15.671Z,16.9277
2023-04-27T18:34:18.198Z,16.8182
2023-04-27T18:35:20.827Z,16.7464
2023-04-27T18:36:23.547Z,16.6790
2023-04-27T18:37:25.990Z,16.6413
2023-04-27T18:38:28.551Z,16.6210
2023-04-27T18:39:31.177Z,16.6758
2023-04-27T18:40:33.753Z,16.6560
2023-04-27T18:41:36.354Z,16.6859
2023-04-27T18:42:38.916Z,16.6976
2023-04-27T18:43:41.541Z,16.6395
2023-04-27T18:44:44.082Z,16.6497
2023-04-27T18:45:46.779Z,16.6717
2023-04-27T18:46:49.276Z,16.7079
2023-04-27T18:47:51.941Z,16.7510
2023-04-27T18:48:54.440Z,16.7826
2023-04-27T18:49:57.064Z,16.7876
2023-04-27T18:50:59.626Z,16.7850
2023-04-27T18:52:02.229Z,16.7786
2023-04-27T18:53:04.784Z,16.7879
2023-04-27T18:54:07.449Z,16.7666
2023-04-27T18:55:09.955Z,16.7432
2023-04-27T18:56:12.604Z,16.7083
2023-04-27T18:57:15.147Z,16.6432
2023-04-27T18:58:17.778Z,16.5506
2023-04-27T18:59:20.331Z,16.5724
2023-04-27T19:00:22.929Z,16.5712
2023-04-27T19:01:25.621Z,16.5759
2023-04-27T19:02:28.202Z,16.5572
2023-04-27T19:03:31.008Z,16.5349
2023-04-27T19:04:33.507Z,16.5103
2023-04-27T19:05:35.871Z,16.4427
2023-04-27T19:06:38.456Z,16.4472
2023-04-27T19:07:41.097Z,16.4619
2023-04-27T19:08:43.635Z,16.4571
2023-04-27T19:09:46.186Z,16.4032
2023-04-27T19:10:48.800Z,16.3936
2023-04-27T19:12:00.012Z,16.2780
2023-04-27T19:12:53.967Z,16.1848
2023-04-27T19:13:56.531Z,16.1197
2023-04-27T19:14:59.138Z,16.1004
2023-04-27T19:16:01.713Z,15.9573
2023-04-27T19:17:04.899Z,15.7239
2023-04-27T19:18:11.231Z,15.5616
2023-04-27T19:19:09.496Z,15.4279
2023-04-27T19:20:12.105Z,15.3690
2023-04-27T19:21:14.681Z,15.3598
2023-04-27T19:22:17.256Z,15.4374
2023-04-27T19:23:19.875Z,15.4935
2023-04-27T19:24:22.448Z,15.4999
2023-04-27T19:25:25.108Z,15.5556
2023-04-27T19:26:29.578Z,15.6047
2023-04-27T19:27:30.234Z,15.6179
2023-04-27T19:28:32.806Z,15.6222
2023-04-27T19:29:35.403Z,15.5860
2023-04-27T19:30:37.982Z,15.6342
2023-04-27T19:31:40.700Z,15.6297
2023-04-27T19:32:43.183Z,15.6464
2023-04-27T19:33:47.376Z,15.6633
2023-04-27T19:34:48.331Z,15.6607
2023-04-27T19:35:50.944Z,15.6265
2023-04-27T19:36:53.576Z,15.5447
2023-04-27T19:37:56.134Z,15.5808
2023-04-27T19:38:58.702Z,15.6105
2023-04-27T19:40:01.331Z,15.6215
2023-04-27T19:41:03.900Z,15.5678
2023-04-27T19:42:06.490Z,15.5136
2023-04-27T19:43:09.049Z,15.5031
2023-04-27T19:44:11.876Z,15.5400
2023-04-27T19:45:14.222Z,15.5679
2023-04-27T19:46:16.902Z,15.6037
2023-04-27T19:47:19.407Z,15.6026
2023-04-27T19:48:22.285Z,15.5934
2023-04-27T19:49:24.580Z,15.6081
2023-04-27T19:50:27.211Z,15.6323
2023-04-27T19:51:29.771Z,15.6149
2023-04-27T19:52:32.394Z,15.5995
2023-04-27T19:53:34.945Z,15.6179
2023-04-27T19:54:37.564Z,15.6227
2023-04-27T19:55:40.130Z,15.6287
2023-04-27T19:56:42.741Z,15.6705
2023-04-27T19:57:45.313Z,15.6951
2023-04-27T19:58:47.931Z,15.7214
2023-04-27T19:59:50.507Z,15.7406
2023-04-27T20:00:53.115Z,15.7504
2023-04-27T20:01:55.710Z,15.7212
2023-04-27T20:02:58.466Z,15.7333
2023-04-27T20:04:01.108Z,15.7730
2023-04-27T20:05:03.593Z,15.7693
2023-04-27T20:06:06.166Z,15.7345
2023-04-27T20:07:08.874Z,15.7283
2023-04-27T20:09:50.185Z,15.9007
2023-04-27T20:10:53.266Z,15.8497
2023-04-27T20:13:29.532Z,16.0685
2023-04-27T20:14:32.175Z,15.9807
2023-04-27T20:15:34.714Z,15.9984
2023-04-27T20:16:37.510Z,15.9980
2023-04-27T20:17:39.954Z,16.0009
2023-04-27T20:18:42.481Z,15.9709
2023-04-27T20:19:45.181Z,15.9670
2023-04-27T20:20:47.670Z,15.9543
2023-04-27T20:21:50.341Z,15.9350
2023-04-27T20:22:52.888Z,15.9160
2023-04-27T20:23:56.115Z,15.8829
2023-04-27T20:24:58.073Z,15.8505
2023-04-27T20:26:00.689Z,15.8651
2023-04-27T20:27:03.265Z,15.8491
2023-04-27T20:28:05.876Z,15.8273
2023-04-27T20:29:08.458Z,15.9001
2023-04-27T20:30:11.076Z,15.9447
2023-04-27T20:31:13.702Z,15.9678
2023-04-27T20:32:16.271Z,15.9836
2023-04-27T20:33:18.882Z,16.0242
2023-04-27T20:34:21.464Z,16.0544
2023-04-27T20:35:24.383Z,16.0591
2023-04-27T20:36:26.643Z,16.0483
2023-04-27T20:37:29.306Z,16.0493
2023-04-27T20:38:31.844Z,16.0537
2023-04-27T20:39:34.399Z,16.0519
2023-04-27T20:40:37.030Z,15.9861
2023-04-27T20:41:39.608Z,15.9821
2023-04-27T20:42:42.216Z,16.0044
2023-04-27T20:43:44.766Z,16.0034
2023-04-27T20:44:47.425Z,15.9805
2023-04-27T20:45:49.993Z,15.7364
2023-04-27T20:46:52.591Z,15.7088
2023-04-27T20:47:55.525Z,15.7421
2023-04-27T20:48:57.767Z,15.7366
2023-04-27T20:50:00.358Z,15.7260
2023-04-27T20:51:03.003Z,15.6363
2023-04-27T20:52:05.527Z,15.6217
2023-04-27T20:53:08.139Z,15.6276
2023-04-27T20:54:10.710Z,15.6370
2023-04-27T20:55:13.361Z,15.5990
2023-04-27T20:56:15.898Z,15.5756
2023-04-27T20:57:18.507Z,15.5404
2023-04-27T20:58:21.192Z,15.5626
2023-04-27T20:59:23.691Z,15.5400
2023-04-27T21:00:26.268Z,15.3250
2023-04-27T21:01:28.914Z,15.2303
2023-04-27T21:02:31.491Z,15.2973
2023-04-27T21:03:34.256Z,15.3009
2023-04-27T21:04:36.803Z,15.2424
2023-04-27T21:05:39.261Z,15.1097
2023-04-27T21:06:41.848Z,15.0650
2023-04-27T21:07:44.430Z,14.9702
2023-04-27T21:08:47.000Z,15.0327
2023-04-27T21:09:49.620Z,15.0854
2023-04-27T21:10:52.189Z,15.1205
2023-04-27T21:11:54.824Z,15.1149
2023-04-27T21:12:57.379Z,15.1391
2023-04-27T21:14:00.002Z,15.0885
2023-04-27T21:15:02.584Z,15.0791
2023-04-27T21:16:05.214Z,15.0853
2023-04-27T21:17:07.901Z,15.0862
2023-04-27T21:18:22.442Z,15.0248
2023-04-27T21:19:12.940Z,14.9977
2023-04-27T21:20:15.568Z,14.9443
2023-04-27T21:22:37.834Z,14.9984
2023-04-27T21:23:40.456Z,14.8626
2023-04-27T21:24:43.026Z,14.8621
2023-04-27T21:25:45.648Z,14.8235
2023-04-27T21:26:48.237Z,14.7463
2023-04-27T21:27:50.859Z,14.6194
2023-04-27T21:28:53.423Z,14.5493
2023-04-27T21:29:56.042Z,14.4705
2023-04-27T21:31:59.097Z,14.6000
2023-04-27T21:33:01.716Z,14.3489
2023-04-27T21:34:04.303Z,14.2660
2023-04-27T21:35:06.873Z,14.2268
2023-04-27T21:36:09.507Z,14.2635
2023-04-27T21:37:12.084Z,14.1367
2023-04-27T21:38:14.709Z,14.0090
2023-04-27T21:39:17.275Z,14.0291
2023-04-27T21:40:19.908Z,14.0903
2023-04-27T21:41:22.475Z,13.9693
2023-04-27T21:42:25.096Z,13.8632
2023-04-27T21:43:27.670Z,13.8161
2023-04-27T21:44:30.347Z,13.8889
2023-04-27T21:45:32.877Z,13.9053
2023-04-27T21:46:35.551Z,13.7979
2023-04-27T21:47:38.103Z,13.7064
2023-04-27T21:48:40.702Z,13.6337
2023-04-27T21:49:43.267Z,13.5914
2023-04-27T21:50:45.898Z,13.6021
2023-04-27T21:51:48.468Z,13.6205
2023-04-27T21:52:51.094Z,13.6372
2023-04-27T21:53:53.679Z,13.6710
2023-04-27T21:54:56.297Z,13.7132
2023-04-27T21:55:58.878Z,13.7300
2023-04-27T21:57:01.510Z,13.6969
2023-04-27T21:58:04.084Z,13.6784
2023-04-27T21:59:06.707Z,13.6852
2023-04-27T22:00:09.364Z,13.6751
2023-04-27T22:01:11.931Z,13.6763
2023-04-27T22:02:14.506Z,13.6283
2023-04-27T22:03:17.318Z,13.6081
2023-04-27T22:04:20.052Z,13.5804
2023-04-27T22:05:22.300Z,13.5624
2023-04-27T22:06:24.882Z,13.5673
2023-04-27T22:07:27.512Z,13.5763
2023-04-27T22:08:30.119Z,13.5667
2023-04-27T22:09:32.734Z,13.5552
2023-04-27T22:10:35.293Z,13.5359
2023-04-27T22:11:37.915Z,13.5141
2023-04-27T22:14:00.227Z,13.6212
2023-04-27T22:15:02.863Z,13.4533
2023-04-27T22:16:05.531Z,13.4432
2023-04-27T22:17:08.068Z,13.4432
2023-04-27T22:18:10.661Z,13.4391
2023-04-27T22:19:13.330Z,13.4442
2023-04-27T22:20:15.874Z,13.4423
2023-04-27T22:21:18.501Z,13.4524
2023-04-27T22:22:21.082Z,13.4502
2023-04-27T22:23:23.711Z,13.4163
2023-04-27T22:24:26.287Z,13.3934
2023-04-27T22:25:28.929Z,13.3773
2023-04-27T22:26:31.500Z,13.3772
2023-04-27T22:27:41.971Z,13.3603
2023-04-27T22:28:36.706Z,13.3398
2023-04-27T22:29:39.349Z,13.4403
2023-04-27T22:30:41.945Z,13.5467
2023-04-27T22:31:44.629Z,13.6288
2023-04-27T22:32:47.181Z,13.6682
2023-04-27T22:33:49.734Z,13.7266
2023-04-27T22:34:52.326Z,13.7976
2023-04-27T22:35:54.951Z,13.8448
2023-04-27T22:36:57.522Z,13.8666
2023-04-27T22:38:00.146Z,13.8563
2023-04-27T22:39:02.721Z,13.8436
2023-04-27T22:40:05.363Z,13.8384
2023-04-27T22:41:07.928Z,13.8230
2023-04-27T22:42:10.581Z,13.8524
2023-04-27T22:43:13.122Z,13.8588
2023-04-27T22:44:15.919Z,13.8715
2023-04-27T22:45:18.321Z,13.8589
2023-04-27T22:46:21.016Z,13.8470
2023-04-27T22:47:23.593Z,13.8234
2023-04-27T22:48:26.145Z,13.8157
2023-04-27T22:49:28.718Z,13.8503
2023-04-27T22:50:31.404Z,13.8659
2023-04-27T22:51:33.938Z,13.8323
2023-04-27T22:52:36.550Z,13.7586
2023-04-27T22:53:39.118Z,13.6097
2023-04-27T22:54:41.740Z,13.4946
2023-04-27T22:55:44.320Z,13.4560
2023-04-27T22:56:46.981Z,13.5294
2023-04-27T22:57:49.518Z,13.5757
2023-04-27T22:58:52.142Z,13.5953
2023-04-27T22:59:54.735Z,13.6165
2023-04-27T23:00:57.422Z,13.6680
2023-04-27T23:03:19.819Z,13.8428
2023-04-27T23:04:22.511Z,13.5867
2023-04-27T23:05:24.883Z,13.4558
2023-04-27T23:06:27.460Z,13.4949
2023-04-27T23:07:30.089Z,13.5532
2023-04-27T23:08:32.685Z,13.5384
2023-04-27T23:09:35.358Z,13.5266
2023-04-27T23:10:37.881Z,13.5195
2023-04-27T23:11:40.525Z,13.5400
2023-04-27T23:12:43.083Z,13.5076
2023-04-27T23:13:45.692Z,13.4603
2023-04-27T23:14:48.323Z,13.4753
2023-04-27T23:15:50.901Z,13.4907
2023-04-27T23:16:53.558Z,13.4123
2023-04-27T23:17:56.139Z,13.4388
2023-04-27T23:18:58.724Z,13.4039
2023-04-27T23:20:01.300Z,13.3511
2023-04-27T23:21:03.936Z,13.3899
2023-04-27T23:22:06.505Z,13.4331
2023-04-27T23:23:09.139Z,13.4536
2023-04-27T23:24:11.709Z,13.4659
2023-04-27T23:25:14.408Z,13.4627
2023-04-27T23:26:16.928Z,13.4568
2023-04-27T23:27:19.587Z,13.4268
2023-04-27T23:28:22.134Z,13.4160
2023-04-27T23:29:24.787Z,13.4338
2023-04-27T23:30:27.345Z,13.4144
2023-04-27T23:31:30.049Z,13.2693
2023-04-27T23:32:32.583Z,13.0445
2023-04-27T23:33:35.184Z,12.9013
2023-04-27T23:34:37.752Z,12.8834
2023-04-27T23:35:40.386Z,12.9664
2023-04-27T23:36:42.969Z,13.0363
2023-04-27T23:37:45.591Z,13.1097
2023-04-27T23:38:48.179Z,13.1647
2023-04-27T23:39:50.793Z,13.2142
2023-04-27T23:40:53.364Z,13.2174
2023-04-27T23:41:55.994Z,13.1878
2023-04-27T23:42:58.566Z,13.1820
2023-04-27T23:44:01.198Z,13.1729
2023-04-27T23:45:03.784Z,13.0936
2023-04-27T23:46:06.437Z,12.9506
2023-04-27T23:47:09.000Z,12.7526
2023-04-27T23:48:11.660Z,12.6578
2023-04-27T23:49:14.346Z,12.6093
2023-04-27T23:50:16.895Z,12.5368
2023-04-27T23:51:19.401Z,12.4579
2023-04-27T23:52:22.040Z,12.4199
2023-04-27T23:53:24.613Z,12.4323
2023-04-27T23:54:27.256Z,12.4095
2023-04-27T23:55:29.834Z,12.4141
2023-04-27T23:56:32.459Z,12.4556
2023-04-27T23:57:35.074Z,12.4542
2023-04-27T23:58:37.676Z,12.4452
2023-04-27T23:59:40.258Z,12.4868
